Terminal Aerodrome Forecast
Issued by NWS

Current Version | Previous Version | Graphics & Text | Print | Product List | Glossary Off
Versions: 1 2 3 4 5 6 7 8 9 10 11 12 13 14 15 16 17 18 19 20 21 22 23 24

000
FTUS41 KPBZ 031734
TAFMGW
TAF
KMGW 031734Z 0318/0418 00000KT P6SM BKN060
     FM040200 00000KT P6SM OVC015
     FM040600 00000KT P6SM OVC007
     FM040700 00000KT 4SM BR OVC007
     FM040800 00000KT 1 1/2SM BR OVC007
     FM041300 00000KT 6SM BR OVC025
     FM041400 24002KT P6SM OVC050=

USA.gov is the U.S. government's official web portal to all federal, state and local government web resources and services.